createdAt,value
2022-08-17T00:01:56.630Z,100784.69
2022-08-17T00:04:02.064Z,100792.56
2022-08-17T00:06:08.740Z,100791.72
2022-08-17T00:08:13.003Z,100795.25
2022-08-17T00:10:15.069Z,100797.06
2022-08-17T00:12:41.715Z,100799.72
2022-08-17T00:14:40.248Z,100801.47
2022-08-17T00:16:55.453Z,100803.25
2022-08-17T00:19:07.449Z,100793.66
2022-08-17T00:21:11.879Z,100792.78
2022-08-17T00:23:18.137Z,100787.53
2022-08-17T00:25:20.341Z,100792.78
2022-08-17T00:27:22.653Z,100778.81
2022-08-17T00:29:24.990Z,100784.06
2022-08-17T00:31:27.453Z,100772.72
2022-08-17T00:33:31.816Z,100773.63
2022-08-17T00:35:35.072Z,100766.56
2022-08-17T00:37:37.085Z,100773.63
2022-08-17T00:39:39.274Z,100771.91
2022-08-17T00:41:42.447Z,100769.28
2022-08-17T00:43:50.850Z,100771.91
2022-08-17T00:45:53.712Z,100770.13
2022-08-17T00:47:55.780Z,100768.47
2022-08-17T00:49:57.736Z,100761.47
2022-08-17T00:52:11.683Z,100758.88
2022-08-17T00:54:19.124Z,100761.47
2022-08-17T00:56:29.073Z,100761.44
2022-08-17T00:58:36.276Z,100759.72
2022-08-17T01:00:43.156Z,100761.44
2022-08-17T01:02:47.159Z,100758.81
2022-08-17T01:04:52.931Z,100758.75
2022-08-17T01:06:57.090Z,100756.19
2022-08-17T01:09:00.087Z,100759.72
2022-08-17T01:11:03.047Z,100763.13
2022-08-17T01:13:06.005Z,100760.53
2022-08-17T01:15:08.749Z,100762.25
2022-08-17T01:17:15.194Z,100757.03
2022-08-17T01:19:30.106Z,100757.91
2022-08-17T01:21:57.679Z,100756.16
2022-08-17T01:24:05.654Z,100746.56
2022-08-17T01:26:07.726Z,100750.03
2022-08-17T01:28:09.988Z,100744.81
2022-08-17T01:30:58.091Z,100748.31
2022-08-17T01:32:35.466Z,100749.22
2022-08-17T01:34:42.337Z,100746.59
2022-08-17T01:36:47.890Z,100749.22
2022-08-17T01:38:50.196Z,100758.00
2022-08-17T01:40:58.118Z,100745.78
2022-08-17T01:43:07.449Z,100741.41
2022-08-17T01:45:14.902Z,100741.44
2022-08-17T01:47:19.847Z,100737.09
2022-08-17T01:49:23.159Z,100730.97
2022-08-17T01:51:32.837Z,100727.53
2022-08-17T01:53:39.953Z,100713.63
2022-08-17T01:55:48.248Z,100723.22
2022-08-17T01:57:50.811Z,100728.59
2022-08-17T01:59:52.727Z,100734.81
2022-08-17T02:01:56.584Z,100734.88
2022-08-17T02:04:01.165Z,100729.66
2022-08-17T02:06:05.391Z,100736.72
2022-08-17T02:08:19.850Z,100741.13
2022-08-17T02:10:22.332Z,100737.78
2022-08-17T02:12:47.940Z,100740.31
2022-08-17T02:14:47.143Z,100751.72
2022-08-17T02:16:49.177Z,100758.69
2022-08-17T02:18:51.125Z,100750.91
2022-08-17T02:20:53.943Z,100757.94
2022-08-17T02:22:55.989Z,100759.78
2022-08-17T02:25:01.885Z,100758.09
2022-08-17T02:27:04.889Z,100760.75
2022-08-17T02:29:07.509Z,100763.38
2022-08-17T02:31:12.748Z,100765.16
2022-08-17T02:33:15.093Z,100777.41
2022-08-17T02:35:17.043Z,100782.69
2022-08-17T02:37:22.041Z,100787.13
2022-08-17T02:39:24.183Z,100788.94
2022-08-17T02:41:25.985Z,100784.59
2022-08-17T02:43:28.890Z,100782.84
2022-08-17T02:45:30.972Z,100784.59
2022-08-17T02:47:33.246Z,100777.69
2022-08-17T02:49:35.269Z,100781.19
2022-08-17T02:51:37.099Z,100779.44
2022-08-17T02:53:50.787Z,100781.19
2022-08-17T02:55:53.058Z,100786.41
2022-08-17T02:57:55.781Z,100783.00
2022-08-17T02:59:57.680Z,100784.63
2022-08-17T03:01:59.628Z,100790.88
2022-08-17T03:04:01.742Z,100797.75
2022-08-17T03:06:05.125Z,100792.59
2022-08-17T03:08:07.470Z,100783.03
2022-08-17T03:10:15.100Z,100778.69
2022-08-17T03:12:18.107Z,100783.03
2022-08-17T03:14:20.166Z,100782.19
2022-08-17T03:16:28.267Z,100783.06
2022-08-17T03:18:30.459Z,100793.53
2022-08-17T03:20:33.737Z,100801.34
2022-08-17T03:22:42.345Z,100801.34
2022-08-17T03:24:50.230Z,100792.69
2022-08-17T03:26:52.760Z,100793.66
2022-08-17T03:28:54.668Z,100794.53
2022-08-17T03:30:56.789Z,100796.38
2022-08-17T03:33:01.142Z,100789.47
2022-08-17T03:35:03.098Z,100793.09
2022-08-17T03:37:05.074Z,100795.63
2022-08-17T03:39:07.164Z,100802.69
2022-08-17T03:41:09.147Z,100800.22
2022-08-17T03:43:11.201Z,100799.31
2022-08-17T03:45:16.490Z,100795.81
2022-08-17T03:47:37.066Z,100801.03
2022-08-17T03:49:57.676Z,100802.75
2022-08-17T03:52:18.335Z,100804.47
2022-08-17T03:54:38.688Z,100801.84
2022-08-17T03:56:44.728Z,100801.00
2022-08-17T03:58:47.551Z,100800.09
2022-08-17T04:00:51.155Z,100799.25
2022-08-17T04:02:53.456Z,100801.00
2022-08-17T04:04:55.918Z,100795.00
2022-08-17T04:06:58.112Z,100795.84
2022-08-17T04:09:00.226Z,100794.09
2022-08-17T04:11:02.341Z,100796.72
2022-08-17T04:13:04.694Z,100794.06
2022-08-17T04:15:07.286Z,100796.72
2022-08-17T04:17:09.163Z,100795.91
2022-08-17T04:19:11.519Z,100809.84
2022-08-17T04:21:13.468Z,100797.63
2022-08-17T04:23:17.971Z,100802.91
2022-08-17T04:25:20.064Z,100809.00
2022-08-17T04:27:22.049Z,100806.38
2022-08-17T04:29:26.319Z,100804.66
2022-08-17T04:31:56.413Z,100796.91
2022-08-17T04:33:58.394Z,100803.88
2022-08-17T04:36:03.161Z,100804.69
2022-08-17T04:38:06.447Z,100803.94
2022-08-17T04:40:27.586Z,100804.72
2022-08-17T04:42:30.778Z,100803.91
2022-08-17T04:44:37.375Z,100802.16
2022-08-17T04:46:40.288Z,100803.91
2022-08-17T04:48:46.264Z,100805.69
2022-08-17T04:50:50.606Z,100800.50
2022-08-17T04:52:52.572Z,100798.81
2022-08-17T04:54:54.529Z,100798.81
2022-08-17T04:56:56.592Z,100795.34
2022-08-17T04:59:02.771Z,100790.13
2022-08-17T05:01:06.084Z,100789.28
2022-08-17T05:03:08.233Z,100789.31
2022-08-17T05:05:10.147Z,100781.50
2022-08-17T05:07:17.616Z,100789.41
2022-08-17T05:09:21.949Z,100788.63
2022-08-17T05:11:26.458Z,100778.16
2022-08-17T05:13:31.807Z,100772.06
2022-08-17T05:15:36.160Z,100772.94
2022-08-17T05:17:37.991Z,100768.56
2022-08-17T05:19:39.861Z,100769.44
2022-08-17T05:21:50.309Z,100772.13
2022-08-17T05:23:56.242Z,100777.44
2022-08-17T05:25:58.649Z,100778.31
2022-08-17T05:28:00.511Z,100786.16
2022-08-17T05:30:04.306Z,100794.91
2022-08-17T05:32:39.692Z,100794.88
2022-08-17T05:34:36.763Z,100795.78
2022-08-17T05:36:43.861Z,100801.84
2022-08-17T05:38:46.087Z,100801.91
2022-08-17T05:40:48.460Z,100802.75
2022-08-17T05:42:50.982Z,100803.56
2022-08-17T05:44:52.916Z,100805.31
2022-08-17T05:46:55.005Z,100807.88
2022-08-17T05:49:04.439Z,100813.97
2022-08-17T05:51:12.158Z,100816.53
2022-08-17T05:53:33.059Z,100822.69
2022-08-17T05:56:01.723Z,100824.38
2022-08-17T05:58:45.618Z,100831.34
2022-08-17T06:01:13.144Z,100833.22
2022-08-17T06:03:33.342Z,100850.50
2022-08-17T06:05:51.481Z,100853.94
2022-08-17T06:07:57.631Z,100851.31
2022-08-17T06:10:31.698Z,100846.06
2022-08-17T06:12:42.098Z,100842.56
2022-08-17T06:14:49.484Z,100839.09
2022-08-17T06:16:59.321Z,100839.94
2022-08-17T06:19:14.726Z,100847.81
2022-08-17T06:21:20.028Z,100847.69
2022-08-17T06:23:39.326Z,100845.91
2022-08-17T06:25:47.798Z,100847.66
2022-08-17T06:27:55.713Z,100838.94
2022-08-17T06:30:09.430Z,100851.13
2022-08-17T06:32:13.225Z,100855.44
2022-08-17T06:34:15.702Z,100862.50
2022-08-17T06:36:28.153Z,100866.78
2022-08-17T06:39:03.246Z,100868.50
2022-08-17T06:41:18.010Z,100865.78
2022-08-17T06:43:39.704Z,100876.25
2022-08-17T06:45:49.546Z,100887.53
2022-08-17T06:48:24.477Z,100884.84
2022-08-17T06:50:44.013Z,100880.47
2022-08-17T06:52:57.639Z,100885.59
2022-08-17T06:55:08.066Z,100893.31
2022-08-17T06:57:30.627Z,100884.56
2022-08-17T06:59:55.124Z,100883.78
2022-08-17T07:02:05.650Z,100884.56
2022-08-17T07:04:13.076Z,100881.06
2022-08-17T07:06:18.135Z,100879.25
2022-08-17T07:08:27.682Z,100881.06
2022-08-17T07:10:50.982Z,100880.19
2022-08-17T07:12:56.022Z,100880.09
2022-08-17T07:15:12.949Z,100888.75
2022-08-17T07:17:17.383Z,100887.03
2022-08-17T07:19:24.433Z,100899.19
2022-08-17T07:21:55.114Z,100905.16
2022-08-17T07:24:29.537Z,100904.25
2022-08-17T07:26:32.098Z,100910.19
2022-08-17T07:28:35.579Z,100909.34
2022-08-17T07:30:47.375Z,100914.50
2022-08-17T07:32:58.472Z,100911.88
2022-08-17T07:35:10.901Z,100917.91
2022-08-17T07:37:18.923Z,100921.34
2022-08-17T07:39:28.182Z,100932.63
2022-08-17T07:41:53.178Z,100938.75
2022-08-17T07:43:58.470Z,100946.59
2022-08-17T07:46:36.939Z,100951.00
2022-08-17T07:48:41.362Z,100956.25
2022-08-17T07:50:43.035Z,100953.56
2022-08-17T07:52:52.608Z,100957.88
2022-08-17T07:54:54.640Z,100960.41
2022-08-17T07:57:02.175Z,100963.03
2022-08-17T07:59:10.307Z,100966.56
2022-08-17T08:01:18.477Z,100963.84
2022-08-17T08:03:32.029Z,100967.25
2022-08-17T08:05:50.171Z,100972.50
2022-08-17T08:07:58.403Z,100968.13
2022-08-17T08:10:14.030Z,100969.00
2022-08-17T08:12:33.362Z,100969.75
2022-08-17T08:14:38.639Z,100962.09
2022-08-17T08:16:55.258Z,100970.81
2022-08-17T08:18:59.907Z,100967.22
2022-08-17T08:21:09.608Z,100962.06
2022-08-17T08:23:21.070Z,100959.53
2022-08-17T08:25:45.422Z,100947.28
2022-08-17T08:28:08.858Z,100958.88
2022-08-17T08:30:16.231Z,100956.31
2022-08-17T08:32:30.287Z,100951.78
2022-08-17T08:34:45.020Z,100955.16
2022-08-17T08:37:15.748Z,100956.00
2022-08-17T08:39:28.543Z,100950.63
2022-08-17T08:42:10.029Z,100947.84
2022-08-17T08:44:23.873Z,100938.09
2022-08-17T08:47:14.437Z,100957.13
2022-08-17T08:50:03.222Z,100950.00
2022-08-17T08:52:20.181Z,100956.78
2022-08-17T08:54:53.849Z,100947.84
2022-08-17T08:59:54.143Z,100949.91
2022-08-17T09:02:29.522Z,100944.50
2022-08-17T09:05:14.393Z,100953.00
2022-08-17T09:07:31.688Z,100953.63
2022-08-17T09:09:59.499Z,100952.59
2022-08-17T09:12:29.249Z,100954.09
2022-08-17T09:14:46.588Z,100950.50
2022-08-17T09:17:05.891Z,100952.09
2022-08-17T09:19:34.101Z,100958.06
2022-08-17T09:21:47.961Z,100955.44
2022-08-17T09:24:35.867Z,100954.34
2022-08-17T09:26:46.446Z,100946.38
2022-08-17T09:28:52.732Z,100953.44
2022-08-17T09:31:03.127Z,100950.78
2022-08-17T09:33:08.618Z,100959.47
2022-08-17T09:35:15.925Z,100961.97
2022-08-17T09:37:20.438Z,100967.00
2022-08-17T09:39:33.455Z,100968.78
2022-08-17T09:41:52.883Z,100966.16
2022-08-17T09:44:23.133Z,100970.63
2022-08-17T09:46:41.013Z,100966.03
2022-08-17T09:48:55.294Z,100964.22
2022-08-17T09:51:07.137Z,100971.19
2022-08-17T09:53:09.474Z,100968.56
2022-08-17T09:55:11.277Z,100962.38
2022-08-17T09:57:32.562Z,100970.13
2022-08-17T10:00:11.339Z,100974.28
2022-08-17T10:02:50.565Z,100977.25
2022-08-17T10:05:12.095Z,100982.16
2022-08-17T10:07:32.568Z,100990.34
2022-08-17T10:09:48.756Z,100987.13
2022-08-17T10:12:30.132Z,100994.00
2022-08-17T10:14:55.062Z,100989.53
2022-08-17T10:17:22.353Z,100984.16
2022-08-17T10:19:26.816Z,100992.03
2022-08-17T10:22:00.881Z,100992.69
2022-08-17T10:24:33.487Z,100985.38
2022-08-17T10:26:55.419Z,100992.25
2022-08-17T10:29:11.613Z,100992.25
2022-08-17T10:31:40.798Z,100987.53
2022-08-17T10:34:19.112Z,100981.09
2022-08-17T10:36:37.927Z,100984.56
2022-08-17T10:38:42.305Z,100989.00
2022-08-17T10:40:43.912Z,100980.88
2022-08-17T10:42:51.879Z,100983.66
2022-08-17T10:45:13.978Z,100987.13
2022-08-17T10:47:18.206Z,100989.00
2022-08-17T10:49:22.596Z,100989.16
2022-08-17T10:51:41.697Z,100986.97
2022-08-17T10:53:43.683Z,100976.34
2022-08-17T10:56:14.349Z,100978.16
2022-08-17T10:58:24.532Z,100978.31
2022-08-17T11:00:43.939Z,100972.34
2022-08-17T11:02:50.225Z,100962.38
2022-08-17T11:05:08.832Z,100960.84
2022-08-17T11:07:35.474Z,100955.63
2022-08-17T11:10:09.973Z,100952.97
2022-08-17T11:12:49.244Z,100951.97
2022-08-17T11:15:20.111Z,100949.72
2022-08-17T11:17:57.699Z,100941.97
2022-08-17T11:20:38.157Z,100942.22
2022-08-17T11:23:08.134Z,100940.06
2022-08-17T11:25:21.673Z,100935.47
2022-08-17T11:27:29.542Z,100936.22
2022-08-17T11:29:53.528Z,100933.16
2022-08-17T11:32:02.721Z,100933.16
2022-08-17T11:34:06.400Z,100928.22
2022-08-17T11:36:49.481Z,100923.28
2022-08-17T11:39:06.165Z,100927.97
2022-08-17T11:41:20.238Z,100924.66
2022-08-17T11:43:58.698Z,100930.81
2022-08-17T11:46:25.923Z,100920.97
2022-08-17T11:48:53.173Z,100924.38
2022-08-17T11:51:54.215Z,100916.59
2022-08-17T11:54:21.658Z,100914.94
2022-08-17T11:56:34.071Z,100913.91
2022-08-17T11:58:43.185Z,100905.94
2022-08-17T12:00:45.902Z,100909.81
2022-08-17T12:02:48.826Z,100918.03
2022-08-17T12:05:14.774Z,100907.56
2022-08-17T12:07:23.212Z,100906.16
2022-08-17T12:09:29.932Z,100906.31
2022-08-17T12:12:13.845Z,100907.78
2022-08-17T12:14:45.084Z,100909.09
2022-08-17T12:16:59.874Z,100906.28
2022-08-17T12:19:03.734Z,100905.56
2022-08-17T12:21:23.503Z,100903.22
2022-08-17T12:23:40.588Z,100896.44
2022-08-17T12:25:58.229Z,100895.59
2022-08-17T12:28:05.273Z,100903.00
2022-08-17T12:30:14.493Z,100898.25
2022-08-17T12:32:20.218Z,100905.44
2022-08-17T12:34:27.937Z,100903.50
2022-08-17T12:36:32.078Z,100904.56
2022-08-17T12:38:36.242Z,100896.25
2022-08-17T12:40:38.141Z,100895.28
2022-08-17T12:42:41.499Z,100891.69
2022-08-17T12:44:50.082Z,100891.91
2022-08-17T12:47:00.982Z,100895.16
2022-08-17T12:49:31.586Z,100904.69
2022-08-17T12:51:34.073Z,100902.44
2022-08-17T12:53:35.989Z,100898.50
2022-08-17T12:55:39.295Z,100908.81
2022-08-17T12:57:54.368Z,100909.97
2022-08-17T13:00:20.013Z,100915.09
2022-08-17T13:02:53.779Z,100906.72
2022-08-17T13:04:59.211Z,100911.75
2022-08-17T13:07:03.162Z,100911.84
2022-08-17T13:09:18.594Z,100907.00
2022-08-17T13:11:24.871Z,100910.28
2022-08-17T13:13:29.849Z,100917.19
2022-08-17T13:15:51.276Z,100915.00
2022-08-17T13:18:09.016Z,100910.22
2022-08-17T13:20:15.834Z,100910.19
2022-08-17T13:22:22.456Z,100904.69
2022-08-17T13:24:26.427Z,100909.47
2022-08-17T13:26:51.442Z,100910.16
2022-08-17T13:28:54.521Z,100922.91
2022-08-17T13:31:26.372Z,100929.72
2022-08-17T13:33:44.628Z,100927.09
2022-08-17T13:35:50.421Z,100939.31
2022-08-17T13:38:10.508Z,100946.09
2022-08-17T13:40:12.183Z,100950.56
2022-08-17T13:42:32.815Z,100945.88
2022-08-17T13:44:40.475Z,100952.56
2022-08-17T13:46:52.488Z,100965.06
2022-08-17T13:49:11.660Z,100970.31
2022-08-17T13:51:19.865Z,100974.59
2022-08-17T13:53:26.698Z,100979.47
2022-08-17T13:55:31.312Z,100980.63
2022-08-17T13:57:33.450Z,100982.06
2022-08-17T13:59:54.513Z,100971.84
2022-08-17T14:01:57.455Z,100973.72
2022-08-17T14:04:01.923Z,100979.25
2022-08-17T14:06:05.279Z,100994.56
2022-08-17T14:08:07.350Z,100997.56
2022-08-17T14:10:17.966Z,101001.47
2022-08-17T14:12:23.091Z,101004.38
2022-08-17T14:14:25.592Z,100999.41
2022-08-17T14:16:27.295Z,101002.16
2022-08-17T14:18:31.183Z,101004.94
2022-08-17T14:20:53.239Z,101003.47
2022-08-17T14:22:55.925Z,101002.72
2022-08-17T14:24:59.910Z,100998.50
2022-08-17T14:27:03.847Z,101013.44
2022-08-17T14:29:05.624Z,101003.84
2022-08-17T14:31:16.877Z,101003.06
2022-08-17T14:33:22.599Z,101007.28
2022-08-17T14:35:27.902Z,101004.03
2022-08-17T14:37:30.972Z,101017.25
2022-08-17T14:39:32.941Z,101023.31
2022-08-17T14:41:35.517Z,101018.13
2022-08-17T14:43:37.328Z,101014.72
2022-08-17T14:45:39.023Z,101006.94
2022-08-17T14:47:41.845Z,101006.16
2022-08-17T14:49:43.906Z,101015.75
2022-08-17T14:51:49.814Z,101007.94
2022-08-17T14:53:51.538Z,101007.09
2022-08-17T14:55:55.842Z,101009.97
2022-08-17T14:57:57.578Z,101005.47
2022-08-17T15:00:00.167Z,101006.44
2022-08-17T15:02:05.014Z,101015.25
2022-08-17T15:04:07.100Z,101011.78
2022-08-17T15:06:09.842Z,101019.63
2022-08-17T15:08:12.680Z,101029.28
2022-08-17T15:10:16.043Z,101034.47
2022-08-17T15:12:21.977Z,101031.78
2022-08-17T15:14:23.731Z,101040.56
2022-08-17T15:16:27.052Z,101043.22
2022-08-17T15:18:29.847Z,101038.78
2022-08-17T15:20:31.620Z,101052.84
2022-08-17T15:22:33.344Z,101057.13
2022-08-17T15:24:35.289Z,101072.88
2022-08-17T15:26:38.070Z,101070.31
2022-08-17T15:28:39.921Z,101085.13
2022-08-17T15:30:43.825Z,101077.28
2022-08-17T15:32:51.174Z,101086.00
2022-08-17T15:34:58.746Z,101078.31
2022-08-17T15:37:00.506Z,101081.69
2022-08-17T15:39:03.697Z,101081.75
2022-08-17T15:41:15.150Z,101087.94
2022-08-17T15:43:24.806Z,101088.81
2022-08-17T15:45:30.819Z,101094.09
2022-08-17T15:47:32.678Z,101089.84
2022-08-17T15:49:34.640Z,101111.63
2022-08-17T15:51:36.761Z,101105.56
2022-08-17T15:53:39.365Z,101108.31
2022-08-17T15:55:41.220Z,101102.22
2022-08-17T15:57:42.917Z,101096.13
2022-08-17T15:59:46.349Z,101090.94
2022-08-17T16:03:14.978Z,101088.41
2022-08-17T16:04:30.153Z,101082.34
2022-08-17T16:06:33.031Z,101091.09
2022-08-17T16:08:35.462Z,101088.47
2022-08-17T16:10:37.267Z,101091.09
2022-08-17T16:12:39.002Z,101092.91
2022-08-17T16:14:40.770Z,101085.97
2022-08-17T16:16:42.484Z,101082.53
2022-08-17T16:18:44.258Z,101086.94
2022-08-17T16:20:45.958Z,101081.91
2022-08-17T16:22:49.845Z,101081.03
2022-08-17T16:24:56.953Z,101072.31
2022-08-17T16:26:59.567Z,101074.84
2022-08-17T16:29:05.260Z,101079.22
2022-08-17T16:31:08.242Z,101067.06
2022-08-17T16:33:12.284Z,101070.56
2022-08-17T16:35:18.248Z,101063.63
2022-08-17T16:37:20.061Z,101061.00
2022-08-17T16:39:22.379Z,101062.72
2022-08-17T16:41:47.538Z,101055.81
2022-08-17T16:43:49.826Z,101047.94
2022-08-17T16:45:52.341Z,101048.78
2022-08-17T16:47:55.198Z,101055.84
2022-08-17T16:49:56.959Z,101058.56
2022-08-17T16:52:03.410Z,101054.13
2022-08-17T16:54:06.343Z,101057.66
2022-08-17T16:56:08.035Z,101060.19
2022-08-17T16:58:10.231Z,101054.13
2022-08-17T17:00:14.479Z,101056.81
2022-08-17T17:02:25.331Z,101040.16
2022-08-17T17:04:27.705Z,101047.19
2022-08-17T17:06:46.310Z,101039.22
2022-08-17T17:09:12.204Z,101038.44
2022-08-17T17:11:36.477Z,101041.88
2022-08-17T17:13:46.887Z,101035.78
2022-08-17T17:16:24.019Z,101034.00
2022-08-17T17:19:01.708Z,101030.53
2022-08-17T17:21:04.829Z,101038.25
2022-08-17T17:23:25.166Z,101040.03
2022-08-17T17:25:32.988Z,101033.00
2022-08-17T17:27:52.758Z,101039.94
2022-08-17T17:30:04.795Z,101030.34
2022-08-17T17:32:32.986Z,101041.66
2022-08-17T17:34:36.485Z,101044.28
2022-08-17T17:36:47.614Z,101043.44
2022-08-17T17:38:54.053Z,101054.69
2022-08-17T17:41:05.587Z,101051.13
2022-08-17T17:43:37.209Z,101051.97
2022-08-17T17:45:40.637Z,101058.88
2022-08-17T17:47:43.239Z,101058.81
2022-08-17T17:49:48.820Z,101069.25
2022-08-17T17:52:11.149Z,101070.06
2022-08-17T17:54:44.367Z,101071.72
2022-08-17T17:57:04.363Z,101063.13
2022-08-17T17:59:21.087Z,101067.41
2022-08-17T18:01:31.988Z,101058.75
2022-08-17T18:04:20.771Z,101069.16
2022-08-17T18:06:56.560Z,101080.44
2022-08-17T18:09:15.484Z,101080.41
2022-08-17T18:11:36.309Z,101104.81
2022-08-17T18:14:01.996Z,101106.63
2022-08-17T18:16:10.610Z,101099.56
2022-08-17T18:18:15.222Z,101104.78
2022-08-17T18:20:36.468Z,101109.94
2022-08-17T18:22:47.250Z,101101.25
2022-08-17T18:24:56.559Z,101118.63
2022-08-17T18:27:01.971Z,101122.13
2022-08-17T18:29:30.302Z,101117.81
2022-08-17T18:31:32.358Z,101125.66
2022-08-17T18:33:34.966Z,101124.75
2022-08-17T18:35:36.781Z,101123.84
2022-08-17T18:37:45.008Z,101123.00
2022-08-17T18:39:46.894Z,101132.59
2022-08-17T18:41:53.165Z,101134.31
2022-08-17T18:44:04.814Z,101141.34
2022-08-17T18:46:30.072Z,101147.44
2022-08-17T18:48:52.803Z,101140.47
2022-08-17T18:51:00.353Z,101151.78
2022-08-17T18:53:33.537Z,101152.72
2022-08-17T18:55:36.116Z,101160.63
2022-08-17T18:57:48.745Z,101156.28
2022-08-17T18:59:50.743Z,101160.66
2022-08-17T19:02:15.304Z,101156.47
2022-08-17T19:04:34.519Z,101162.56
2022-08-17T19:06:37.977Z,101164.25
2022-08-17T19:08:40.325Z,101162.53
2022-08-17T19:10:46.967Z,101163.38
2022-08-17T19:13:00.744Z,101176.50
2022-08-17T19:15:04.413Z,101173.81
2022-08-17T19:17:21.084Z,101172.09
2022-08-17T19:19:51.016Z,101173.84
2022-08-17T19:22:13.673Z,101180.03
2022-08-17T19:24:26.540Z,101176.53
2022-08-17T19:26:51.124Z,101179.16
2022-08-17T19:29:04.007Z,101181.78
2022-08-17T19:31:16.789Z,101184.47
2022-08-17T19:33:22.192Z,101186.16
2022-08-17T19:35:32.398Z,101191.41
2022-08-17T19:38:00.759Z,101194.97
2022-08-17T19:40:29.257Z,101201.91
2022-08-17T19:42:52.870Z,101203.66
2022-08-17T19:45:04.073Z,101206.28
2022-08-17T19:47:19.555Z,101208.06
2022-08-17T19:50:00.931Z,101213.38
2022-08-17T19:52:34.277Z,101214.22
2022-08-17T19:54:55.727Z,101210.69
2022-08-17T19:57:35.055Z,101215.13
2022-08-17T20:00:09.682Z,101217.75
2022-08-17T20:02:35.538Z,101220.50
2022-08-17T20:04:43.396Z,101216.91
2022-08-17T20:06:49.526Z,101217.81
2022-08-17T20:09:14.336Z,101216.06
2022-08-17T20:11:31.715Z,101210.88
2022-08-17T20:13:45.007Z,101212.59
2022-08-17T20:15:47.932Z,101213.41
2022-08-17T20:17:51.053Z,101215.19
2022-08-17T20:20:20.259Z,101213.41
2022-08-17T20:22:51.910Z,101223.03
2022-08-17T20:24:57.764Z,101224.75
2022-08-17T20:27:12.337Z,101232.66
2022-08-17T20:29:14.409Z,101231.78
2022-08-17T20:31:56.262Z,101230.94
2022-08-17T20:34:33.752Z,101239.63
2022-08-17T20:36:57.504Z,101232.66
2022-08-17T20:39:00.362Z,101237.94
2022-08-17T20:41:10.314Z,101237.94
2022-08-17T20:43:33.475Z,101231.81
2022-08-17T20:45:53.128Z,101225.75
2022-08-17T20:50:32.499Z,101231.81
2022-08-17T20:52:51.732Z,101235.38
2022-08-17T20:54:57.604Z,101227.50
2022-08-17T20:57:01.128Z,101231.00
2022-08-17T20:59:03.679Z,101220.53
2022-08-17T21:01:14.977Z,101224.03
2022-08-17T21:03:28.333Z,101224.94
2022-08-17T21:06:17.245Z,101219.69
2022-08-17T21:08:29.703Z,101234.50
2022-08-17T21:10:35.876Z,101231.03
2022-08-17T21:13:04.604Z,101226.63
2022-08-17T21:15:17.210Z,101224.91
2022-08-17T21:17:38.463Z,101223.19
2022-08-17T21:20:13.801Z,101238.00
2022-08-17T21:22:43.380Z,101234.50
2022-08-17T21:25:37.255Z,101228.44
2022-08-17T21:27:58.752Z,101236.31
2022-08-17T21:30:06.717Z,101240.69
2022-08-17T21:32:23.761Z,101246.78
2022-08-17T21:34:38.894Z,101249.44
2022-08-17T21:36:41.983Z,101249.44
2022-08-17T21:38:57.381Z,101247.72
2022-08-17T21:40:59.596Z,101252.91
2022-08-17T21:43:23.628Z,101262.53
2022-08-17T21:45:32.244Z,101259.00
2022-08-17T21:47:35.017Z,101259.94
2022-08-17T21:49:37.813Z,101261.63
2022-08-17T21:51:56.511Z,101268.59
2022-08-17T21:54:05.206Z,101271.19
2022-08-17T21:56:13.032Z,101266.84
2022-08-17T21:58:39.980Z,101274.66
2022-08-17T22:00:44.515Z,101280.78
2022-08-17T22:02:55.428Z,101276.41
2022-08-17T22:04:59.010Z,101274.69
2022-08-17T22:07:03.672Z,101271.19
2022-08-17T22:09:13.020Z,101272.13
2022-08-17T22:11:17.032Z,101274.69
2022-08-17T22:13:19.838Z,101279.03
2022-08-17T22:15:21.786Z,101275.53
2022-08-17T22:17:27.304Z,101279.91
2022-08-17T22:19:30.457Z,101282.53
2022-08-17T22:21:32.186Z,101289.47
2022-08-17T22:23:59.454Z,101280.78
2022-08-17T22:26:09.569Z,101278.19
2022-08-17T22:28:39.773Z,101279.94
2022-08-17T22:31:01.697Z,101283.47
2022-08-17T22:33:31.446Z,101283.44
2022-08-17T22:35:43.266Z,101285.19
2022-08-17T22:37:45.540Z,101290.44
2022-08-17T22:39:58.114Z,101291.31
2022-08-17T22:42:00.934Z,101286.97
2022-08-17T22:44:29.672Z,101289.59
2022-08-17T22:46:47.731Z,101283.50
2022-08-17T22:48:52.773Z,101287.88
2022-08-17T22:51:18.301Z,101282.69
2022-08-17T22:53:41.979Z,101286.19
2022-08-17T22:56:14.531Z,101286.19
2022-08-17T22:58:38.396Z,101282.69
2022-08-17T23:00:45.693Z,101288.03
2022-08-17T23:03:05.699Z,101277.53
2022-08-17T23:05:13.356Z,101283.63
2022-08-17T23:07:15.440Z,101290.63
2022-08-17T23:09:17.322Z,101287.13
2022-08-17T23:11:19.096Z,101288.88
2022-08-17T23:13:38.148Z,101282.84
2022-08-17T23:15:41.131Z,101279.31
2022-08-17T23:17:45.259Z,101280.19
2022-08-17T23:19:47.243Z,101268.00
2022-08-17T23:21:55.722Z,101274.09
2022-08-17T23:23:59.344Z,101276.66
2022-08-17T23:26:05.394Z,101283.72
2022-08-17T23:28:07.290Z,101290.66
2022-08-17T23:30:10.739Z,101296.75
2022-08-17T23:32:15.896Z,101294.13
2022-08-17T23:34:18.665Z,101295.03
2022-08-17T23:36:20.404Z,101291.53
2022-08-17T23:38:22.652Z,101292.44
2022-08-17T23:40:24.767Z,101295.91
2022-08-17T23:42:28.734Z,101294.16
2022-08-17T23:44:31.139Z,101295.94
2022-08-17T23:46:32.915Z,101297.72
2022-08-17T23:48:35.816Z,101302.03
2022-08-17T23:50:38.775Z,101300.31
2022-08-17T23:52:43.371Z,101301.19
2022-08-17T23:54:46.864Z,101295.97
2022-08-17T23:56:48.799Z,101298.59
2022-08-17T23:58:51.439Z,101296.84
